Saint Rocks, Vermont
Current Conditions -  °F | °C
As of 11:15 AM on Thursday 27 Nov 2014 (Local Time) from KFSO Reporting Station
Overcast Overcast  
Wind Chill: 22°   Ceiling: 3100
Heat Index: 29°   Visibility: 10mi
Dew Point: 20°   Wind: 6mph
Humidity: 71%   Direction: 340°NNW
Pressure: 30.03"   Gusts: NA
Location:  44.8776°N, 72.9201°W
Report Text: KFSO 271615Z AUTO 34005KT 10SM OVC031 M02/M06 A3003 RMK AO2 T10191065
Loading
Personal Weather Stations






























Interactive Weather Map New forecast layout! Learn more

10-Day Weather Forecast

Advertisements
Track Severe Weather on mobile